Time;durP1;ratioP1;P1;durP2;ratioP2;P2;SDS_P1;SDS_P2;PMS_P1;PMS_P2;Temp;Humidity;BMP_temperature;BMP_pressure;BME280_temperature;BME280_humidity;BME280_pressure;Samples;Min_cycle;Max_cycle;Signal;HPM_P1;HPM_P2
2021/12/29 00:01:35;;;;;;;;;;;8.80;99.90;;;;;;4930990;28;21124;-70
2021/12/29 00:04:02;;;;;;;;;;;8.80;99.90;;;;;;4930393;28;21051;-71
2021/12/29 00:06:29;;;;;;;;;;;8.80;99.90;;;;;;4930444;28;20100;-70
2021/12/29 00:08:59;;;;;;;;;;;8.80;99.90;;;;;;4930556;28;21082;-70
2021/12/29 00:11:26;;;;;;;;;;;8.80;99.90;;;;;;4931432;28;20069;-70
2021/12/29 00:13:53;;;;;;;;;;;8.70;99.90;;;;;;4930825;28;20079;-70
2021/12/29 00:16:21;;;;;;;;;;;8.70;99.90;;;;;;4930075;28;20152;-70
2021/12/29 00:18:48;;;;;;;;;;;8.70;99.90;;;;;;4929598;28;20060;-70
2021/12/29 00:21:15;;;;;;;;;;;8.70;99.90;;;;;;4931078;28;20153;-70
2021/12/29 00:23:42;;;;;;;;;;;8.70;99.90;;;;;;4929848;28;20133;-70
2021/12/29 00:26:13;;;;;;;;;;;8.60;99.90;;;;;;4930677;28;20155;-70
2021/12/29 00:28:40;;;;;;;;;;;8.60;99.90;;;;;;4929816;28;20060;-70
2021/12/29 00:31:07;;;;;;;;;;;8.60;99.90;;;;;;4931613;28;20067;-70
2021/12/29 00:33:53;;;;;;;;;;;8.60;99.90;;;;;;4949434;28;20171;-71
2021/12/29 00:36:39;;;;;;;;;;;8.60;99.90;;;;;;4950064;28;20068;-70
2021/12/29 00:39:25;;;;;;;;;;;8.70;99.90;;;;;;4949005;28;20151;-70
2021/12/29 00:42:13;;;;;;;;;;;8.70;99.90;;;;;;4949613;28;20059;-70
2021/12/29 00:44:59;;;;;;;;;;;8.70;99.90;;;;;;4950536;28;20163;-70
2021/12/29 00:47:29;;;;;;;;;;;8.70;99.90;;;;;;4930218;28;20074;-71
2021/12/29 00:49:58;;;;;;;;;;;8.70;99.90;;;;;;4930357;28;20067;-69
2021/12/29 00:52:25;;;;;;;;;;;8.70;99.90;;;;;;4930635;28;20052;-71
2021/12/29 00:54:53;;;;;;;;;;;8.70;99.90;;;;;;4930141;28;20052;-69
2021/12/29 00:57:22;;;;;;;;;;;8.70;99.90;;;;;;4929847;28;21160;-70
2021/12/29 00:59:49;;;;;;;;;;;8.70;99.90;;;;;;4930274;28;20060;-70
2021/12/29 01:02:16;;;;;;;;;;;8.70;99.90;;;;;;4930541;28;20935;-70
2021/12/29 01:04:43;;;;;;;;;;;8.70;99.90;;;;;;4930292;28;20051;-70
2021/12/29 01:07:10;;;;;;;;;;;8.70;99.90;;;;;;4929681;28;21171;-70
2021/12/29 01:09:37;;;;;;;;;;;8.60;99.90;;;;;;4930005;28;21041;-69
2021/12/29 01:12:05;;;;;;;;;;;8.60;99.90;;;;;;4930656;28;20061;-70
2021/12/29 01:14:34;;;;;;;;;;;8.60;99.90;;;;;;4930028;28;20300;-70
2021/12/29 01:17:01;;;;;;;;;;;8.60;99.90;;;;;;4930148;28;20225;-70
2021/12/29 01:19:29;;;;;;;;;;;8.70;99.90;;;;;;4929855;28;20077;-70
2021/12/29 01:21:58;;;;;;;;;;;8.60;99.90;;;;;;4930359;28;20053;-69
2021/12/29 01:24:26;;;;;;;;;;;8.70;99.90;;;;;;5014034;22;20059;-69
2021/12/29 01:26:54;;;;;;;;;;;8.70;99.90;;;;;;5043457;28;21220;-71
2021/12/29 01:29:22;;;;;;;;;;;8.70;99.90;;;;;;5045137;28;20058;-71
2021/12/29 01:31:50;;;;;;;;;;;8.70;99.90;;;;;;5045602;28;21192;-71
2021/12/29 01:34:17;;;;;;;;;;;8.70;99.90;;;;;;5046184;28;20086;-71
2021/12/29 01:36:45;;;;;;;;;;;8.70;99.90;;;;;;5045503;28;20083;-71
2021/12/29 01:39:13;;;;;;;;;;;8.70;99.90;;;;;;5045788;28;20066;-71
2021/12/29 01:41:41;;;;;;;;;;;8.70;99.90;;;;;;5046545;28;20098;-71
2021/12/29 01:44:09;;;;;;;;;;;8.70;99.90;;;;;;5046167;28;20085;-72
2021/12/29 01:46:36;;;;;;;;;;;8.70;99.90;;;;;;5045415;28;20058;-72
2021/12/29 01:49:05;;;;;;;;;;;8.70;99.90;;;;;;5045910;28;20058;-71
2021/12/29 01:51:32;;;;;;;;;;;8.70;99.90;;;;;;5046173;28;20088;-72
2021/12/29 01:54:14;;;;;;;;;;;8.60;99.90;;;;;;5046232;28;20078;-70
2021/12/29 01:56:43;;;;;;;;;;;8.60;99.90;;;;;;5045766;28;20051;-70
2021/12/29 01:59:10;;;;;;;;;;;8.60;99.90;;;;;;5045810;28;20181;-72
2021/12/29 02:01:37;;;;;;;;;;;8.70;99.90;;;;;;5045758;28;20051;-72
2021/12/29 02:04:06;;;;;;;;;;;8.70;99.90;;;;;;5045132;28;20177;-73
2021/12/29 02:06:33;;;;;;;;;;;8.70;99.90;;;;;;5044961;28;20082;-72
2021/12/29 02:09:00;;;;;;;;;;;8.70;99.90;;;;;;5044720;28;20086;-71
2021/12/29 02:11:30;;;;;;;;;;;8.80;99.90;;;;;;5043400;28;20067;-70
2021/12/29 02:13:58;;;;;;;;;;;8.80;99.90;;;;;;5045463;28;20059;-71
2021/12/29 02:16:25;;;;;;;;;;;8.80;99.90;;;;;;5044662;28;20074;-71
2021/12/29 02:18:53;;;;;;;;;;;8.80;99.90;;;;;;5047247;28;20253;-73
2021/12/29 02:21:23;;;;;;;;;;;8.80;99.90;;;;;;5049208;28;21087;-70
2021/12/29 02:24:16;;;;;;;;;;;8.80;99.90;;;;;;5048730;28;20065;-71
2021/12/29 02:26:44;;;;;;;;;;;8.70;99.90;;;;;;5049504;28;21076;-69
2021/12/29 02:29:11;;;;;;;;;;;8.70;99.90;;;;;;5048871;28;20142;-68
2021/12/29 02:31:39;;;;;;;;;;;8.70;99.90;;;;;;5048909;28;20147;-70
2021/12/29 02:34:08;;;;;;;;;;;8.60;99.90;;;;;;5049080;28;20085;-71
2021/12/29 02:36:42;;;;;;;;;;;8.60;99.90;;;;;;5048512;28;20058;-71
2021/12/29 02:39:10;;;;;;;;;;;8.50;99.90;;;;;;5048434;28;20050;-70
2021/12/29 02:41:38;;;;;;;;;;;8.50;99.90;;;;;;5049005;28;20051;-71
2021/12/29 02:44:10;;;;;;;;;;;8.50;99.90;;;;;;5048118;28;20064;-73
2021/12/29 02:46:38;;;;;;;;;;;8.50;99.90;;;;;;5048835;28;20066;-72
2021/12/29 02:49:05;;;;;;;;;;;8.50;99.90;;;;;;5048716;28;20057;-73
2021/12/29 02:51:33;;;;;;;;;;;8.50;99.90;;;;;;5048537;28;20067;-71
2021/12/29 02:54:02;;;;;;;;;;;8.50;99.90;;;;;;5048174;28;20068;-72
2021/12/29 02:56:29;;;;;;;;;;;8.50;99.90;;;;;;5047928;28;20072;-73
2021/12/29 02:58:57;;;;;;;;;;;8.50;99.90;;;;;;5047953;28;20050;-72
2021/12/29 03:01:24;;;;;;;;;;;8.50;99.90;;;;;;5048216;28;20325;-72
2021/12/29 03:03:51;;;;;;;;;;;8.50;99.90;;;;;;5048761;28;20051;-72
2021/12/29 03:06:19;;;;;;;;;;;8.40;99.90;;;;;;5048157;28;21034;-72
2021/12/29 03:08:47;;;;;;;;;;;8.40;99.90;;;;;;5046644;28;20081;-70
2021/12/29 03:11:16;;;;;;;;;;;8.40;99.90;;;;;;5035331;28;20068;-73
2021/12/29 03:13:43;;;;;;;;;;;8.40;99.90;;;;;;5028015;28;20160;-73
2021/12/29 03:16:11;;;;;;;;;;;8.40;99.90;;;;;;5027765;28;20064;-73
2021/12/29 03:18:39;;;;;;;;;;;8.40;99.90;;;;;;5027500;28;20100;-72
2021/12/29 03:21:06;;;;;;;;;;;8.40;99.90;;;;;;5027248;28;20079;-72
2021/12/29 03:23:33;;;;;;;;;;;8.40;99.90;;;;;;5027358;28;20301;-73
2021/12/29 03:26:02;;;;;;;;;;;8.40;99.90;;;;;;5027812;28;20160;-73
2021/12/29 03:28:31;;;;;;;;;;;8.40;99.90;;;;;;5027533;28;20057;-72
2021/12/29 03:30:58;;;;;;;;;;;8.50;99.90;;;;;;5027720;28;20059;-71
2021/12/29 03:33:26;;;;;;;;;;;8.50;99.90;;;;;;5027078;28;21076;-71
2021/12/29 03:35:54;;;;;;;;;;;8.40;99.90;;;;;;5027077;28;20090;-71
2021/12/29 03:38:22;;;;;;;;;;;8.50;99.90;;;;;;5026606;28;20077;-71
2021/12/29 03:40:50;;;;;;;;;;;8.50;99.90;;;;;;5027947;28;20066;-72
2021/12/29 03:43:17;;;;;;;;;;;8.50;99.90;;;;;;5027384;28;20098;-72
2021/12/29 03:45:47;;;;;;;;;;;8.50;99.90;;;;;;5027010;28;20148;-70
2021/12/29 03:48:15;;;;;;;;;;;8.50;99.90;;;;;;5027194;28;20071;-72
2021/12/29 03:50:42;;;;;;;;;;;8.50;99.90;;;;;;5026766;28;20067;-72
2021/12/29 03:53:10;;;;;;;;;;;8.50;99.90;;;;;;5027238;28;20134;-72
2021/12/29 03:55:37;;;;;;;;;;;8.60;99.90;;;;;;5027078;28;20160;-71
2021/12/29 03:58:04;;;;;;;;;;;8.50;99.90;;;;;;5026793;28;20050;-71
2021/12/29 04:00:32;;;;;;;;;;;8.50;99.90;;;;;;5027524;28;21148;-71
2021/12/29 04:03:00;;;;;;;;;;;8.50;99.90;;;;;;5027655;28;20096;-72
2021/12/29 04:05:27;;;;;;;;;;;8.50;99.90;;;;;;5026713;28;20068;-71
2021/12/29 04:07:56;;;;;;;;;;;8.50;99.90;;;;;;5027253;28;20064;-72
2021/12/29 04:10:23;;;;;;;;;;;8.50;99.90;;;;;;5027166;28;20051;-71
2021/12/29 04:12:50;;;;;;;;;;;8.50;99.90;;;;;;5027504;28;20105;-71
2021/12/29 04:15:18;;;;;;;;;;;8.50;99.90;;;;;;5026536;28;20068;-71
2021/12/29 04:17:46;;;;;;;;;;;8.50;99.90;;;;;;5026290;28;21040;-71
2021/12/29 04:23:00;;;;;;;;;;;8.40;99.90;;;;;;5027645;28;20091;-70
2021/12/29 04:25:27;;;;;;;;;;;8.40;99.90;;;;;;5026417;28;20088;-70
2021/12/29 04:27:55;;;;;;;;;;;8.40;99.90;;;;;;5027186;28;20060;-72
2021/12/29 04:30:22;;;;;;;;;;;8.40;99.90;;;;;;5026573;28;21160;-72
2021/12/29 04:32:52;;;;;;;;;;;8.40;99.90;;;;;;5027574;28;20088;-72
2021/12/29 04:35:20;;;;;;;;;;;8.40;99.90;;;;;;5025790;28;20051;-72
2021/12/29 04:37:48;;;;;;;;;;;8.40;99.90;;;;;;5026614;28;20226;-70
2021/12/29 04:40:15;;;;;;;;;;;8.40;99.90;;;;;;5026425;28;20073;-72
2021/12/29 04:42:43;;;;;;;;;;;8.40;99.90;;;;;;5026250;28;20220;-70
2021/12/29 04:45:10;;;;;;;;;;;8.40;99.90;;;;;;5026808;28;20058;-71
2021/12/29 04:47:40;;;;;;;;;;;8.30;99.90;;;;;;5026191;28;20066;-72
2021/12/29 04:50:17;;;;;;;;;;;8.40;99.90;;;;;;5035803;28;21243;-73
2021/12/29 04:52:46;;;;;;;;;;;8.30;99.90;;;;;;5030560;28;20172;-73
2021/12/29 04:55:13;;;;;;;;;;;8.30;99.90;;;;;;5026284;28;21177;-72
2021/12/29 04:57:40;;;;;;;;;;;8.30;99.90;;;;;;5026619;28;21057;-73
2021/12/29 05:00:09;;;;;;;;;;;8.30;99.90;;;;;;5026462;28;20082;-73
2021/12/29 05:02:36;;;;;;;;;;;8.40;99.90;;;;;;5026903;28;21199;-73
2021/12/29 05:05:18;;;;;;;;;;;8.40;99.90;;;;;;5026147;28;20051;-73
2021/12/29 05:10:31;;;;;;;;;;;8.40;99.90;;;;;;5026624;28;20060;-73
2021/12/29 05:12:58;;;;;;;;;;;8.50;99.90;;;;;;5026654;28;20076;-72
2021/12/29 05:15:26;;;;;;;;;;;8.50;99.90;;;;;;5025972;28;20131;-71
2021/12/29 05:17:54;;;;;;;;;;;8.50;99.90;;;;;;5025639;28;21239;-73
2021/12/29 05:20:21;;;;;;;;;;;8.50;99.90;;;;;;5025922;28;20056;-71
2021/12/29 05:22:50;;;;;;;;;;;8.50;99.90;;;;;;5026448;28;20074;-72
2021/12/29 05:25:17;;;;;;;;;;;8.50;99.90;;;;;;5025802;28;20160;-74
2021/12/29 05:27:44;;;;;;;;;;;8.50;99.90;;;;;;5025417;28;20235;-71
2021/12/29 05:30:11;;;;;;;;;;;8.50;99.90;;;;;;5025848;28;20090;-72
2021/12/29 05:32:38;;;;;;;;;;;8.40;99.90;;;;;;5025669;28;21178;-72
2021/12/29 05:35:06;;;;;;;;;;;8.40;99.90;;;;;;5026506;28;20090;-72
2021/12/29 05:37:33;;;;;;;;;;;8.40;99.90;;;;;;5025911;28;20184;-72
2021/12/29 05:40:02;;;;;;;;;;;8.30;99.90;;;;;;5025720;28;20067;-72
2021/12/29 05:42:29;;;;;;;;;;;8.30;99.90;;;;;;5025722;28;20172;-72
2021/12/29 05:44:56;;;;;;;;;;;8.40;99.90;;;;;;5025732;28;20096;-71
2021/12/29 05:47:23;;;;;;;;;;;8.40;99.90;;;;;;5025205;28;21123;-71
2021/12/29 05:49:51;;;;;;;;;;;8.40;99.90;;;;;;5026676;28;20059;-72
2021/12/29 05:52:18;;;;;;;;;;;8.40;99.90;;;;;;5027444;28;20586;-72
2021/12/29 05:54:45;;;;;;;;;;;8.40;99.90;;;;;;5029754;28;20068;-72
2021/12/29 05:57:13;;;;;;;;;;;8.40;99.90;;;;;;5028958;28;20150;-71
2021/12/29 05:59:40;;;;;;;;;;;8.40;99.90;;;;;;5029145;28;20066;-72
2021/12/29 06:02:08;;;;;;;;;;;8.40;99.90;;;;;;5027903;28;20177;-73
2021/12/29 06:04:35;;;;;;;;;;;8.40;99.90;;;;;;5033036;28;20098;-72
2021/12/29 06:07:02;;;;;;;;;;;8.50;99.90;;;;;;5039724;28;20285;-72
2021/12/29 06:09:30;;;;;;;;;;;8.50;99.90;;;;;;5028450;28;21040;-72
2021/12/29 06:11:57;;;;;;;;;;;8.50;99.90;;;;;;5041857;28;20185;-72
2021/12/29 06:14:26;;;;;;;;;;;8.50;99.90;;;;;;5048992;28;21244;-73
2021/12/29 06:16:53;;;;;;;;;;;8.50;99.90;;;;;;5048402;28;20159;-71
2021/12/29 06:19:20;;;;;;;;;;;8.50;99.90;;;;;;5043664;28;20059;-73
2021/12/29 06:21:48;;;;;;;;;;;8.50;99.90;;;;;;5041786;28;20147;-72
2021/12/29 06:24:15;;;;;;;;;;;8.50;99.90;;;;;;5049489;28;20081;-72
2021/12/29 06:26:42;;;;;;;;;;;8.50;99.90;;;;;;5046766;28;20068;-72
2021/12/29 06:29:10;;;;;;;;;;;8.40;99.90;;;;;;5035930;28;20068;-71
2021/12/29 06:31:39;;;;;;;;;;;8.40;99.90;;;;;;5039855;28;20169;-72
2021/12/29 06:34:07;;;;;;;;;;;8.50;99.90;;;;;;5040738;28;20181;-72
2021/12/29 06:36:34;;;;;;;;;;;8.50;99.90;;;;;;5041946;28;20188;-73
2021/12/29 06:39:02;;;;;;;;;;;8.50;99.90;;;;;;5032994;28;21067;-71
2021/12/29 06:41:29;;;;;;;;;;;8.50;99.90;;;;;;5031099;28;20315;-72
2021/12/29 06:43:56;;;;;;;;;;;8.50;99.90;;;;;;5030470;28;20191;-72
2021/12/29 06:46:24;;;;;;;;;;;8.50;99.90;;;;;;5031261;28;20269;-71
2021/12/29 06:48:53;;;;;;;;;;;8.50;99.90;;;;;;5031681;28;20254;-72
2021/12/29 06:51:20;;;;;;;;;;;8.50;99.90;;;;;;5031297;28;21200;-72
2021/12/29 06:53:48;;;;;;;;;;;8.50;99.90;;;;;;5030203;28;20075;-73
2021/12/29 06:56:15;;;;;;;;;;;8.50;99.90;;;;;;5042307;28;20083;-71
2021/12/29 06:58:44;;;;;;;;;;;8.50;99.90;;;;;;5042651;28;20058;-71
2021/12/29 07:01:12;;;;;;;;;;;8.50;99.90;;;;;;5050696;28;20065;-71
2021/12/29 07:03:39;;;;;;;;;;;8.50;99.90;;;;;;5051234;28;20059;-72
2021/12/29 07:06:09;;;;;;;;;;;8.50;99.90;;;;;;5049808;28;20065;-73
2021/12/29 07:08:37;;;;;;;;;;;8.50;99.90;;;;;;5050151;28;20059;-73
2021/12/29 07:11:04;;;;;;;;;;;8.50;99.90;;;;;;5062146;28;20160;-70
2021/12/29 07:13:32;;;;;;;;;;;8.50;99.90;;;;;;5071570;28;20172;-71
2021/12/29 07:15:59;;;;;;;;;;;8.50;99.90;;;;;;5052315;28;20067;-71
2021/12/29 07:18:26;;;;;;;;;;;8.50;99.90;;;;;;5054207;28;21159;-72
2021/12/29 07:20:53;;;;;;;;;;;8.50;99.90;;;;;;5053207;28;20274;-71
2021/12/29 07:23:22;;;;;;;;;;;8.50;99.90;;;;;;5050035;28;21183;-71
2021/12/29 07:25:49;;;;;;;;;;;8.50;99.90;;;;;;5053822;28;20139;-72
2021/12/29 07:28:16;;;;;;;;;;;8.50;99.90;;;;;;5047792;28;20152;-73
2021/12/29 07:30:44;;;;;;;;;;;8.60;99.90;;;;;;5048660;28;20263;-73
2021/12/29 07:33:11;;;;;;;;;;;8.60;99.90;;;;;;5047707;28;20059;-73
2021/12/29 07:35:38;;;;;;;;;;;8.60;99.90;;;;;;5047246;28;20131;-73
2021/12/29 07:38:06;;;;;;;;;;;8.60;99.90;;;;;;5047591;28;20169;-72
2021/12/29 07:40:35;;;;;;;;;;;8.60;99.90;;;;;;5048764;28;20059;-72
2021/12/29 07:43:04;;;;;;;;;;;8.60;99.90;;;;;;5048006;28;20066;-73
2021/12/29 07:45:32;;;;;;;;;;;8.60;99.90;;;;;;5047805;28;20177;-72
2021/12/29 07:48:00;;;;;;;;;;;8.60;99.90;;;;;;5047279;28;20067;-71
2021/12/29 07:50:27;;;;;;;;;;;8.60;99.90;;;;;;5047577;28;20127;-73
2021/12/29 07:52:54;;;;;;;;;;;8.60;99.90;;;;;;5047703;28;20084;-73
2021/12/29 07:55:21;;;;;;;;;;;8.60;99.90;;;;;;5047179;28;21037;-72
2021/12/29 07:57:50;;;;;;;;;;;8.60;99.90;;;;;;5047205;28;20087;-71
2021/12/29 08:00:17;;;;;;;;;;;8.60;99.90;;;;;;5047549;28;20057;-73
2021/12/29 08:02:47;;;;;;;;;;;8.60;99.90;;;;;;5046991;28;21082;-73
2021/12/29 08:05:14;;;;;;;;;;;8.60;99.90;;;;;;5047763;28;20065;-72
2021/12/29 08:07:41;;;;;;;;;;;8.60;99.90;;;;;;5047177;28;20089;-73
2021/12/29 08:10:09;;;;;;;;;;;8.60;99.90;;;;;;5046984;28;21135;-73
2021/12/29 08:12:36;;;;;;;;;;;8.60;99.90;;;;;;5027719;28;20082;-72
2021/12/29 08:15:05;;;;;;;;;;;8.70;99.90;;;;;;5026881;28;20067;-72
2021/12/29 08:17:32;;;;;;;;;;;8.70;99.90;;;;;;5025952;28;21034;-71
2021/12/29 08:20:00;;;;;;;;;;;8.70;99.90;;;;;;5027483;28;20283;-73
2021/12/29 08:22:27;;;;;;;;;;;8.80;99.90;;;;;;5044504;28;20059;-73
2021/12/29 08:24:54;;;;;;;;;;;8.70;99.90;;;;;;5027704;28;20250;-73
2021/12/29 08:27:21;;;;;;;;;;;8.80;99.90;;;;;;5036571;28;20067;-72
2021/12/29 08:29:48;;;;;;;;;;;8.70;99.90;;;;;;5025879;28;20132;-72
2021/12/29 08:32:17;;;;;;;;;;;8.70;99.90;;;;;;5027173;28;20075;-73
2021/12/29 08:34:44;;;;;;;;;;;8.70;99.90;;;;;;5027239;28;20095;-75
2021/12/29 08:37:11;;;;;;;;;;;8.70;99.90;;;;;;5026694;28;20073;-72
2021/12/29 08:39:39;;;;;;;;;;;8.80;99.90;;;;;;5026234;28;20290;-71
2021/12/29 08:42:06;;;;;;;;;;;8.70;99.90;;;;;;5039063;28;20094;-71
2021/12/29 08:44:33;;;;;;;;;;;8.70;99.90;;;;;;5046548;28;21126;-73
2021/12/29 08:47:00;;;;;;;;;;;8.80;99.90;;;;;;5047071;28;20152;-72
2021/12/29 08:49:29;;;;;;;;;;;8.80;99.90;;;;;;5046383;28;20102;-71
2021/12/29 08:51:56;;;;;;;;;;;8.80;99.90;;;;;;5046977;28;20079;-71
2021/12/29 08:54:26;;;;;;;;;;;8.80;99.90;;;;;;5046603;28;20068;-72
2021/12/29 08:56:54;;;;;;;;;;;8.90;99.90;;;;;;5041511;28;21265;-71
2021/12/29 08:59:22;;;;;;;;;;;8.90;99.90;;;;;;5034871;28;20059;-70
2021/12/29 09:01:49;;;;;;;;;;;8.90;99.90;;;;;;5046956;28;21155;-70
2021/12/29 09:04:17;;;;;;;;;;;8.90;99.90;;;;;;5046178;28;20148;-71
2021/12/29 09:06:45;;;;;;;;;;;8.90;99.90;;;;;;5046926;28;20065;-70
2021/12/29 09:09:13;;;;;;;;;;;8.90;99.90;;;;;;5081494;27;20123;-70
2021/12/29 09:11:40;;;;;;;;;;;8.90;99.90;;;;;;5048017;28;21129;-71
2021/12/29 09:14:08;;;;;;;;;;;8.90;99.90;;;;;;5051264;28;21175;-71
2021/12/29 09:16:35;;;;;;;;;;;8.90;99.90;;;;;;5049291;28;20059;-72
2021/12/29 09:19:04;;;;;;;;;;;9.00;99.90;;;;;;5045585;28;20216;-71
2021/12/29 09:21:33;;;;;;;;;;;9.00;99.90;;;;;;5046748;28;20112;-72
2021/12/29 09:24:02;;;;;;;;;;;9.00;99.90;;;;;;5047849;28;20066;-79
2021/12/29 09:26:29;;;;;;;;;;;9.00;99.90;;;;;;5038810;28;21165;-72
2021/12/29 09:28:56;;;;;;;;;;;9.00;99.90;;;;;;5032231;28;20060;-72
2021/12/29 09:31:24;;;;;;;;;;;9.00;99.90;;;;;;5032814;28;20061;-72
2021/12/29 09:33:51;;;;;;;;;;;9.10;99.90;;;;;;5031335;28;20075;-72
2021/12/29 09:36:19;;;;;;;;;;;9.10;99.90;;;;;;5032766;28;20152;-73
2021/12/29 09:38:46;;;;;;;;;;;9.10;99.90;;;;;;5029376;28;20060;-72
2021/12/29 09:41:16;;;;;;;;;;;9.10;99.90;;;;;;5032225;28;20147;-72
2021/12/29 09:43:44;;;;;;;;;;;9.10;99.90;;;;;;5031777;28;20066;-72
2021/12/29 09:46:11;;;;;;;;;;;9.20;99.90;;;;;;5032466;28;20075;-73
2021/12/29 09:48:38;;;;;;;;;;;9.20;99.90;;;;;;5032655;28;20067;-73
2021/12/29 09:51:06;;;;;;;;;;;9.20;99.90;;;;;;5032352;28;20088;-72
2021/12/29 09:53:34;;;;;;;;;;;9.20;99.90;;;;;;5031751;28;20083;-72
2021/12/29 09:56:01;;;;;;;;;;;9.30;99.90;;;;;;5032575;28;20071;-72
2021/12/29 09:58:29;;;;;;;;;;;9.30;99.90;;;;;;5031994;28;20090;-72
2021/12/29 10:00:59;;;;;;;;;;;9.40;99.90;;;;;;5031881;28;20131;-73
2021/12/29 10:03:27;;;;;;;;;;;9.40;99.90;;;;;;5031556;28;20073;-73
2021/12/29 10:05:55;;;;;;;;;;;9.40;99.90;;;;;;5031614;28;20051;-73
2021/12/29 10:08:25;;;;;;;;;;;9.40;99.90;;;;;;5032324;28;20066;-73
2021/12/29 10:10:55;;;;;;;;;;;9.40;99.90;;;;;;5038273;28;20147;-73
2021/12/29 10:13:22;;;;;;;;;;;9.40;99.90;;;;;;5051491;28;20075;-72
2021/12/29 10:15:52;;;;;;;;;;;9.40;99.90;;;;;;5052189;28;21144;-73
2021/12/29 10:18:21;;;;;;;;;;;9.40;99.90;;;;;;5050586;28;20074;-73
2021/12/29 10:20:49;;;;;;;;;;;9.40;99.90;;;;;;5051352;28;20166;-72
2021/12/29 10:23:18;;;;;;;;;;;9.40;99.90;;;;;;5051612;28;21166;-72
2021/12/29 10:25:45;;;;;;;;;;;9.40;99.90;;;;;;5052032;28;20066;-73
2021/12/29 10:28:23;;;;;;;;;;;9.40;99.90;;;;;;5051311;28;20085;-72
2021/12/29 10:31:04;;;;;;;;;;;9.50;99.90;;;;;;5051461;28;20051;-72
2021/12/29 10:33:32;;;;;;;;;;;9.70;99.90;;;;;;5051821;28;20085;-73
2021/12/29 10:36:10;;;;;;;;;;;10.10;99.90;;;;;;5051929;28;20051;-73
2021/12/29 10:38:37;;;;;;;;;;;10.70;99.90;;;;;;5050037;28;20057;-72
2021/12/29 10:41:05;;;;;;;;;;;11.20;99.90;;;;;;5051616;28;20058;-73
2021/12/29 10:43:32;;;;;;;;;;;12.20;99.90;;;;;;5049763;28;20074;-72
2021/12/29 10:45:59;;;;;;;;;;;14.50;99.90;;;;;;5051431;28;20090;-73
2021/12/29 10:48:30;;;;;;;;;;;16.40;99.90;;;;;;5050606;28;21025;-72
2021/12/29 10:50:59;;;;;;;;;;;17.40;99.90;;;;;;5051307;28;20056;-73
2021/12/29 10:53:26;;;;;;;;;;;17.80;99.90;;;;;;5050971;28;20050;-73
2021/12/29 10:55:53;;;;;;;;;;;17.50;99.90;;;;;;5068344;28;20067;-73
2021/12/29 10:58:22;;;;;;;;;;;17.10;99.90;;;;;;5049836;28;20067;-73
2021/12/29 11:00:51;;;;;;;;;;;16.00;99.90;;;;;;5051437;28;20087;-72
2021/12/29 11:03:20;;;;;;;;;;;15.20;99.90;;;;;;5050299;28;20055;-72
2021/12/29 11:05:53;;;;;;;;;;;14.00;99.90;;;;;;5050413;28;21134;-73
2021/12/29 11:08:20;;;;;;;;;;;13.20;99.90;;;;;;5050711;28;20063;-72
2021/12/29 11:10:47;;;;;;;;;;;12.60;99.90;;;;;;5045160;28;21151;-72
2021/12/29 11:13:24;;;;;;;;;;;12.30;99.90;;;;;;5030813;28;20088;-72
2021/12/29 11:15:52;;;;;;;;;;;12.20;99.90;;;;;;5030959;28;20129;-73
2021/12/29 11:18:19;;;;;;;;;;;11.80;99.90;;;;;;5029596;28;20151;-72
2021/12/29 11:20:52;;;;;;;;;;;11.40;99.90;;;;;;5030405;28;20087;-73
2021/12/29 11:23:20;;;;;;;;;;;11.10;99.90;;;;;;5030330;28;20124;-72
2021/12/29 11:25:48;;;;;;;;;;;11.00;99.90;;;;;;5030585;28;20152;-72
2021/12/29 11:28:21;;;;;;;;;;;10.70;99.90;;;;;;5030399;28;21090;-72
2021/12/29 11:30:48;;;;;;;;;;;10.60;99.90;;;;;;5030722;28;20321;-72
2021/12/29 11:33:16;;;;;;;;;;;10.50;99.90;;;;;;5029589;28;20235;-72
2021/12/29 11:35:44;;;;;;;;;;;10.40;99.90;;;;;;5031122;28;20076;-73
2021/12/29 11:38:13;;;;;;;;;;;10.30;99.90;;;;;;5030663;28;20144;-71
2021/12/29 11:40:41;;;;;;;;;;;10.20;99.90;;;;;;5031317;28;20059;-71
2021/12/29 11:43:09;;;;;;;;;;;10.10;99.90;;;;;;5029455;28;20152;-72
2021/12/29 11:45:36;;;;;;;;;;;10.10;99.90;;;;;;5030510;28;21072;-72
2021/12/29 11:48:03;;;;;;;;;;;10.00;99.90;;;;;;5029754;28;20075;-72
2021/12/29 11:50:33;;;;;;;;;;;10.00;99.90;;;;;;5030230;28;20189;-71
2021/12/29 11:53:09;;;;;;;;;;;10.00;99.90;;;;;;5030306;28;20294;-72
2021/12/29 11:55:42;;;;;;;;;;;10.00;99.90;;;;;;5030859;28;20223;-72
2021/12/29 11:58:11;;;;;;;;;;;10.00;99.90;;;;;;5029957;28;20059;-72
2021/12/29 12:00:38;;;;;;;;;;;10.10;99.90;;;;;;5030743;28;20131;-72
2021/12/29 12:03:07;;;;;;;;;;;10.10;99.90;;;;;;5029328;28;21123;-72
2021/12/29 12:05:35;;;;;;;;;;;10.20;99.90;;;;;;5029889;28;20182;-72
2021/12/29 12:08:06;;;;;;;;;;;10.20;99.90;;;;;;5029552;28;20064;-72
2021/12/29 12:10:35;;;;;;;;;;;10.20;99.90;;;;;;5034245;28;21025;-72
2021/12/29 12:13:06;;;;;;;;;;;10.20;99.90;;;;;;5050116;28;20065;-72
2021/12/29 12:15:34;;;;;;;;;;;10.20;99.90;;;;;;5050346;28;20168;-72
2021/12/29 12:18:07;;;;;;;;;;;10.20;99.90;;;;;;5049574;28;20067;-71
2021/12/29 12:20:40;;;;;;;;;;;10.20;99.90;;;;;;5049982;28;20057;-71
2021/12/29 12:23:07;;;;;;;;;;;10.20;99.90;;;;;;5049943;28;20067;-72
2021/12/29 12:25:35;;;;;;;;;;;10.20;99.90;;;;;;5050289;28;20075;-72
2021/12/29 12:28:14;;;;;;;;;;;10.10;99.90;;;;;;5049767;28;21127;-71
2021/12/29 12:30:44;;;;;;;;;;;10.20;99.90;;;;;;5049578;28;20131;-72
2021/12/29 12:33:12;;;;;;;;;;;10.20;99.90;;;;;;5048934;28;21160;-72
2021/12/29 12:35:40;;;;;;;;;;;10.20;99.90;;;;;;5049508;28;20058;-70
2021/12/29 12:38:16;;;;;;;;;;;10.10;99.90;;;;;;5048941;28;21149;-72
2021/12/29 12:40:45;;;;;;;;;;;10.10;99.90;;;;;;5048697;28;20066;-72
2021/12/29 12:43:15;;;;;;;;;;;10.10;99.90;;;;;;5047859;28;20307;-72
2021/12/29 12:45:43;;;;;;;;;;;10.10;99.90;;;;;;5049415;28;21042;-72
2021/12/29 12:48:12;;;;;;;;;;;10.10;99.90;;;;;;5048612;28;20065;-73
2021/12/29 12:50:40;;;;;;;;;;;10.10;99.90;;;;;;5049172;28;20202;-72
2021/12/29 12:53:07;;;;;;;;;;;10.10;99.90;;;;;;5048603;28;20068;-72
2021/12/29 12:55:43;;;;;;;;;;;10.10;99.90;;;;;;5048709;28;21159;-71
2021/12/29 12:58:11;;;;;;;;;;;10.10;99.90;;;;;;5048837;28;21283;-72
2021/12/29 13:00:42;;;;;;;;;;;10.00;99.90;;;;;;5049336;28;20132;-72
2021/12/29 13:03:09;;;;;;;;;;;10.00;99.90;;;;;;5047626;28;21109;-72
2021/12/29 13:05:39;;;;;;;;;;;10.00;99.90;;;;;;5048773;28;21168;-72
2021/12/29 13:08:07;;;;;;;;;;;9.90;99.90;;;;;;5047692;28;20065;-72
2021/12/29 13:10:39;;;;;;;;;;;9.90;99.90;;;;;;5045255;28;21126;-73
2021/12/29 13:13:11;;;;;;;;;;;9.90;99.90;;;;;;5028554;28;20131;-72
2021/12/29 13:15:40;;;;;;;;;;;9.90;99.90;;;;;;5028970;28;20308;-72
2021/12/29 13:18:08;;;;;;;;;;;9.90;99.90;;;;;;5027807;28;20123;-72
2021/12/29 13:20:35;;;;;;;;;;;9.90;99.90;;;;;;5028555;28;20074;-72
2021/12/29 13:23:02;;;;;;;;;;;9.80;99.90;;;;;;5028910;28;20159;-72
2021/12/29 13:25:31;;;;;;;;;;;9.80;99.90;;;;;;5028556;28;20051;-72
2021/12/29 13:28:02;;;;;;;;;;;9.80;99.90;;;;;;5027300;28;20963;-72
2021/12/29 13:30:36;;;;;;;;;;;9.80;99.90;;;;;;5028233;28;20234;-72
2021/12/29 13:33:05;;;;;;;;;;;9.80;99.90;;;;;;5028962;28;21115;-74
2021/12/29 13:35:33;;;;;;;;;;;9.80;99.90;;;;;;5028585;28;20060;-72
2021/12/29 13:38:01;;;;;;;;;;;9.80;99.90;;;;;;5028210;28;20107;-72
2021/12/29 13:40:29;;;;;;;;;;;9.80;99.90;;;;;;5028490;28;21114;-73
2021/12/29 13:42:56;;;;;;;;;;;9.80;99.90;;;;;;5028381;28;20090;-72
2021/12/29 13:45:24;;;;;;;;;;;9.70;99.90;;;;;;5027026;28;20109;-72
2021/12/29 13:47:51;;;;;;;;;;;9.70;99.90;;;;;;5028440;28;20094;-71
2021/12/29 13:50:20;;;;;;;;;;;9.80;99.90;;;;;;5028145;28;20152;-72
2021/12/29 13:52:58;;;;;;;;;;;9.80;99.90;;;;;;5028227;28;20068;-72
2021/12/29 13:55:26;;;;;;;;;;;9.70;99.90;;;;;;5027935;28;20532;-72
2021/12/29 13:57:54;;;;;;;;;;;9.70;99.90;;;;;;5027316;28;21169;-72
2021/12/29 14:00:21;;;;;;;;;;;9.70;99.90;;;;;;5028928;28;20070;-72
2021/12/29 14:02:48;;;;;;;;;;;9.70;99.90;;;;;;5028251;28;20140;-72
2021/12/29 14:05:15;;;;;;;;;;;9.70;99.90;;;;;;5028389;28;20161;-72
2021/12/29 14:07:44;;;;;;;;;;;9.70;99.90;;;;;;5027517;28;20216;-72
2021/12/29 14:10:14;;;;;;;;;;;9.70;99.90;;;;;;5027540;28;20068;-72
2021/12/29 14:12:42;;;;;;;;;;;9.60;99.90;;;;;;5048883;28;20067;-71
2021/12/29 14:15:12;;;;;;;;;;;9.60;99.90;;;;;;5051371;28;20081;-72
2021/12/29 14:17:42;;;;;;;;;;;9.60;99.90;;;;;;5052518;28;20068;-71
2021/12/29 14:20:10;;;;;;;;;;;9.60;99.90;;;;;;5051313;28;20059;-72
2021/12/29 14:22:37;;;;;;;;;;;9.60;99.90;;;;;;5051666;28;20060;-72
2021/12/29 14:25:11;;;;;;;;;;;9.60;99.90;;;;;;5051000;28;21143;-72
2021/12/29 14:27:38;;;;;;;;;;;9.60;99.90;;;;;;5052534;28;20147;-71
2021/12/29 14:30:24;;;;;;;;;;;9.60;99.90;;;;;;5051255;28;20074;-73
2021/12/29 14:32:52;;;;;;;;;;;9.60;99.90;;;;;;5051812;28;20086;-72
2021/12/29 14:35:19;;;;;;;;;;;9.60;99.90;;;;;;5050641;28;20067;-72
2021/12/29 14:37:46;;;;;;;;;;;9.50;99.90;;;;;;5051803;28;20103;-71
2021/12/29 14:40:23;;;;;;;;;;;9.50;99.90;;;;;;5051671;28;21248;-71
2021/12/29 14:42:51;;;;;;;;;;;9.40;99.90;;;;;;5051514;28;20278;-72